Time;durP1;ratioP1;P1;durP2;ratioP2;P2;SDS_P1;SDS_P2;PMS_P1;PMS_P2;Temp;Humidity;BMP_temperature;BMP_pressure;BME280_temperature;BME280_humidity;BME280_pressure;Samples;Min_cycle;Max_cycle;Signal;HPM_P1;HPM_P2
2021/10/26 00:01:11;;;;;;;13.23;7.70;;;6.00;99.90;;;;;;5032161;28;20530;-54
2021/10/26 00:03:38;;;;;;;11.27;7.70;;;6.10;99.90;;;;;;5032247;28;20526;-54
2021/10/26 00:06:05;;;;;;;14.50;8.00;;;6.10;99.90;;;;;;5032160;28;20529;-52
2021/10/26 00:08:34;;;;;;;14.40;7.87;;;6.10;99.90;;;;;;5031756;28;20449;-53
2021/10/26 00:11:02;;;;;;;12.77;8.83;;;6.10;99.90;;;;;;5032137;28;21015;-53
2021/10/26 00:13:29;;;;;;;12.10;8.43;;;6.10;99.90;;;;;;5032286;28;20534;-53
2021/10/26 00:15:56;;;;;;;15.20;8.70;;;6.00;99.90;;;;;;5031967;28;20457;-52
2021/10/26 00:18:23;;;;;;;13.20;8.73;;;6.00;99.90;;;;;;5031759;28;20936;-53
2021/10/26 00:20:50;;;;;;;14.90;9.07;;;5.80;99.90;;;;;;5031875;28;20453;-52
2021/10/26 00:23:17;;;;;;;16.33;9.60;;;5.70;99.90;;;;;;5031971;28;20599;-52
2021/10/26 00:25:48;;;;;;;12.80;8.90;;;5.70;99.90;;;;;;5032056;28;20581;-52
2021/10/26 00:28:16;;;;;;;14.53;9.13;;;5.70;99.90;;;;;;5031494;28;20475;-53
2021/10/26 00:30:44;;;;;;;14.97;8.80;;;5.60;99.90;;;;;;5030915;28;20455;-52
2021/10/26 00:33:11;;;;;;;15.57;9.57;;;5.50;99.90;;;;;;5031531;28;20602;-53
2021/10/26 00:35:38;;;;;;;15.10;9.33;;;5.50;99.90;;;;;;5031599;28;20445;-53
2021/10/26 00:38:05;;;;;;;14.00;9.20;;;5.60;99.90;;;;;;5031749;28;21042;-52
2021/10/26 00:40:32;;;;;;;15.70;8.70;;;5.50;99.90;;;;;;5031748;28;20449;-52
2021/10/26 00:42:59;;;;;;;16.20;8.80;;;5.50;99.90;;;;;;5031934;28;20481;-54
2021/10/26 00:45:28;;;;;;;15.23;8.90;;;5.50;99.90;;;;;;5030609;28;20459;-53
2021/10/26 00:47:55;;;;;;;14.83;9.40;;;5.50;99.90;;;;;;5031412;28;20863;-52
2021/10/26 00:50:22;;;;;;;15.20;9.30;;;5.50;99.90;;;;;;5031465;28;20467;-53
2021/10/26 00:52:49;;;;;;;16.13;9.57;;;5.50;99.90;;;;;;5031611;28;20502;-52
2021/10/26 00:55:16;;;;;;;13.90;8.80;;;5.50;99.90;;;;;;5030769;28;21057;-53
2021/10/26 00:57:43;;;;;;;15.40;9.80;;;5.50;99.90;;;;;;5030855;28;21144;-52
2021/10/26 01:00:12;;;;;;;16.90;9.10;;;5.50;99.90;;;;;;5031231;28;20449;-53
2021/10/26 01:02:43;;;;;;;14.33;8.77;;;5.50;99.90;;;;;;5031126;28;20494;-52
2021/10/26 01:05:10;;;;;;;15.37;9.67;;;5.50;99.90;;;;;;5031631;28;20532;-53
2021/10/26 01:07:38;;;;;;;13.83;8.67;;;5.50;99.90;;;;;;5031591;28;20486;-52
2021/10/26 01:10:07;;;;;;;16.60;8.90;;;5.50;99.90;;;;;;5030579;28;20453;-52
2021/10/26 01:12:35;;;;;;;12.20;8.10;;;5.60;99.90;;;;;;5030846;28;20449;-53
2021/10/26 01:15:03;;;;;;;15.10;8.50;;;5.60;99.90;;;;;;5031500;28;20488;-53
2021/10/26 01:17:30;;;;;;;14.50;8.37;;;5.80;99.90;;;;;;5031590;28;20946;-54
2021/10/26 01:19:59;;;;;;;12.07;8.00;;;5.80;99.90;;;;;;5031399;28;20455;-52
2021/10/26 01:22:29;;;;;;;16.63;8.50;;;5.80;99.90;;;;;;5031002;28;20452;-53
2021/10/26 01:24:58;;;;;;;16.67;8.67;;;7.70;99.90;;;;;;5069685;22;20504;-54
2021/10/26 01:27:26;;;;;;;14.23;8.20;;;5.90;99.90;;;;;;5050090;28;21015;-53
2021/10/26 01:29:53;;;;;;;13.30;8.20;;;5.90;99.90;;;;;;5049995;28;20885;-50
2021/10/26 01:32:20;;;;;;;14.17;7.90;;;5.90;99.90;;;;;;5050643;28;20483;-50
2021/10/26 01:34:49;;;;;;;13.23;7.90;;;5.90;99.90;;;;;;5063884;28;20494;-51
2021/10/26 01:37:17;;;;;;;16.10;8.33;;;6.00;99.90;;;;;;5071447;28;20543;-51
2021/10/26 01:39:44;;;;;;;13.90;8.50;;;6.10;99.90;;;;;;5057168;28;20479;-51
2021/10/26 01:42:12;;;;;;;12.07;7.60;;;6.00;99.90;;;;;;5050827;28;20448;-51
2021/10/26 01:44:40;;;;;;;12.30;7.70;;;6.00;99.90;;;;;;5067413;28;20470;-51
2021/10/26 01:47:07;;;;;;;11.67;7.23;;;6.00;99.90;;;;;;5051193;28;20452;-51
2021/10/26 01:49:34;;;;;;;12.03;7.17;;;6.10;99.90;;;;;;5052482;28;20509;-52
2021/10/26 01:52:01;;;;;;;10.40;6.40;;;6.20;99.90;;;;;;5051013;28;20873;-52
2021/10/26 01:54:36;;;;;;;13.13;6.40;;;6.20;99.90;;;;;;5052018;28;20529;-52
2021/10/26 01:57:04;;;;;;;10.20;5.80;;;6.20;99.90;;;;;;5037949;28;20953;-52
2021/10/26 01:59:31;;;;;;;6.87;5.50;;;6.40;99.90;;;;;;5051216;28;20478;-52
2021/10/26 02:01:58;;;;;;;8.80;5.43;;;6.30;99.90;;;;;;5051122;28;20478;-52
2021/10/26 02:04:25;;;;;;;8.67;4.80;;;6.40;99.90;;;;;;5051756;28;20472;-52
2021/10/26 02:06:53;;;;;;;9.13;5.80;;;6.50;99.90;;;;;;5052298;28;20455;-52
2021/10/26 02:09:21;;;;;;;6.00;4.57;;;6.40;99.90;;;;;;5070152;28;20487;-52
2021/10/26 02:11:49;;;;;;;10.17;5.50;;;6.40;99.90;;;;;;5074371;28;20442;-52
2021/10/26 02:14:16;;;;;;;7.30;4.87;;;6.40;99.90;;;;;;5060953;28;20534;-51
2021/10/26 02:16:43;;;;;;;9.27;4.90;;;6.50;99.90;;;;;;5057711;28;20453;-52
2021/10/26 02:19:11;;;;;;;11.90;5.03;;;6.60;99.90;;;;;;5074793;28;20862;-51
2021/10/26 02:21:38;;;;;;;9.17;4.30;;;6.60;99.90;;;;;;5074356;28;20950;-52
2021/10/26 02:24:05;;;;;;;6.57;4.63;;;6.60;99.90;;;;;;5066268;28;20476;-52
2021/10/26 02:26:32;;;;;;;8.47;4.73;;;6.70;99.90;;;;;;5054601;28;20894;-51
2021/10/26 02:29:01;;;;;;;5.53;3.87;;;7.00;99.90;;;;;;5055662;28;20454;-52
2021/10/26 02:31:28;;;;;;;5.33;3.60;;;7.10;99.90;;;;;;5053960;28;20456;-52
2021/10/26 02:33:55;;;;;;;6.67;4.30;;;7.10;99.90;;;;;;5054080;28;20483;-52
2021/10/26 02:36:22;;;;;;;6.70;4.10;;;7.10;99.90;;;;;;5054809;28;20520;-52
2021/10/26 02:38:50;;;;;;;6.50;4.37;;;7.10;99.90;;;;;;5054112;28;20862;-51
2021/10/26 02:41:17;;;;;;;5.47;4.13;;;7.20;99.90;;;;;;5054090;28;20484;-51
2021/10/26 02:43:44;;;;;;;8.43;4.70;;;7.10;99.90;;;;;;5054170;28;21042;-52
2021/10/26 02:46:13;;;;;;;7.53;4.60;;;7.30;99.90;;;;;;5054189;28;20443;-52
2021/10/26 02:48:42;;;;;;;6.57;4.23;;;7.30;99.90;;;;;;5053632;28;20529;-52
2021/10/26 02:51:09;;;;;;;6.43;3.73;;;7.30;99.90;;;;;;5054855;28;20957;-52
2021/10/26 02:53:36;;;;;;;5.73;3.57;;;7.30;99.90;;;;;;5053761;28;20472;-52
2021/10/26 02:56:03;;;;;;;7.30;3.70;;;7.40;99.90;;;;;;5053650;28;20534;-52
2021/10/26 02:58:30;;;;;;;5.87;3.30;;;7.30;99.90;;;;;;5053881;28;20494;-52
2021/10/26 03:00:57;;;;;;;6.33;3.47;;;7.20;99.90;;;;;;5062420;28;20875;-52
2021/10/26 03:03:26;;;;;;;5.30;4.30;;;7.10;99.90;;;;;;5059907;28;20822;-52
2021/10/26 03:05:52;;;;;;;6.00;3.83;;;7.00;99.90;;;;;;5053699;28;20502;-52
2021/10/26 03:08:19;;;;;;;5.20;3.40;;;7.00;99.90;;;;;;5053745;28;20454;-52
2021/10/26 03:10:48;;;;;;;7.20;3.87;;;6.90;99.90;;;;;;5053412;28;20651;-52
2021/10/26 03:13:16;;;;;;;6.10;3.60;;;7.00;99.90;;;;;;5053633;28;20517;-52
2021/10/26 03:15:48;;;;;;;8.40;3.77;;;7.10;99.90;;;;;;5053702;28;20490;-52
2021/10/26 03:18:15;;;;;;;7.97;4.23;;;7.10;99.90;;;;;;5053758;28;20877;-52
2021/10/26 03:20:45;;;;;;;9.03;4.43;;;7.10;99.90;;;;;;5052918;28;20525;-52
2021/10/26 03:23:12;;;;;;;6.93;3.80;;;7.10;99.90;;;;;;5061269;28;20447;-52
2021/10/26 03:25:39;;;;;;;8.63;4.90;;;7.10;99.90;;;;;;5067534;28;20582;-52
2021/10/26 03:28:08;;;;;;;9.30;4.23;;;7.20;99.90;;;;;;5071179;28;20458;-52
2021/10/26 03:30:35;;;;;;;7.87;4.20;;;7.10;99.90;;;;;;5071535;28;20520;-52
2021/10/26 03:33:02;;;;;;;6.73;3.70;;;7.20;99.90;;;;;;5073485;28;20455;-52
2021/10/26 03:35:29;;;;;;;4.53;4.10;;;7.10;99.90;;;;;;5073212;28;20492;-52
2021/10/26 03:37:57;;;;;;;7.10;4.00;;;7.00;99.90;;;;;;5056847;28;20463;-52
2021/10/26 03:40:24;;;;;;;8.17;4.70;;;7.10;99.90;;;;;;5052246;28;20454;-52
2021/10/26 03:42:51;;;;;;;7.13;4.57;;;7.10;99.90;;;;;;5052968;28;20482;-52
2021/10/26 03:45:18;;;;;;;6.10;4.57;;;7.00;99.90;;;;;;5053550;28;20467;-52
2021/10/26 03:47:46;;;;;;;8.80;4.83;;;7.00;99.90;;;;;;5069060;28;20513;-52
2021/10/26 03:50:13;;;;;;;8.13;4.90;;;7.00;99.90;;;;;;5072703;28;20447;-51
2021/10/26 03:52:41;;;;;;;6.20;4.30;;;6.90;99.90;;;;;;5072630;28;20496;-52
2021/10/26 03:55:10;;;;;;;8.00;4.70;;;7.00;99.90;;;;;;5053504;28;20980;-52
2021/10/26 03:57:38;;;;;;;7.60;5.00;;;7.00;99.90;;;;;;5057433;28;20498;-52
2021/10/26 04:00:07;;;;;;;8.93;4.80;;;6.90;99.90;;;;;;5052873;28;20881;-52
2021/10/26 04:02:39;;;;;;;7.37;5.10;;;6.90;99.90;;;;;;5052544;28;20452;-52
2021/10/26 04:05:14;;;;;;;8.17;4.97;;;6.90;99.90;;;;;;5052812;28;20507;-52
2021/10/26 04:07:47;;;;;;;8.70;5.07;;;6.90;99.90;;;;;;5052449;28;20449;-52
2021/10/26 04:10:18;;;;;;;5.87;4.20;;;6.90;99.90;;;;;;5052400;28;20480;-51
2021/10/26 04:12:45;;;;;;;11.53;4.87;;;6.90;99.90;;;;;;5051696;28;20456;-51
2021/10/26 04:15:12;;;;;;;6.57;4.33;;;6.90;99.90;;;;;;5061713;28;20535;-51
2021/10/26 04:17:39;;;;;;;6.43;4.33;;;7.10;99.90;;;;;;5068630;28;20464;-52
2021/10/26 04:20:07;;;;;;;8.37;4.13;;;6.90;99.90;;;;;;5052370;28;20465;-52
2021/10/26 04:22:34;;;;;;;7.30;4.30;;;6.90;99.90;;;;;;5052094;28;20456;-52
2021/10/26 04:25:01;;;;;;;7.60;4.33;;;6.90;99.90;;;;;;5052213;28;20480;-51
2021/10/26 04:27:29;;;;;;;5.97;4.23;;;6.90;99.90;;;;;;5052032;28;20448;-52
2021/10/26 04:29:56;;;;;;;5.13;3.97;;;7.10;99.90;;;;;;5052058;28;20455;-52
2021/10/26 04:32:23;;;;;;;7.07;4.33;;;7.00;99.90;;;;;;5056155;28;21154;-52
2021/10/26 04:34:50;;;;;;;7.90;4.27;;;7.00;99.90;;;;;;5051990;28;20982;-51
2021/10/26 04:37:17;;;;;;;8.70;5.00;;;6.90;99.90;;;;;;5067667;28;20508;-52
2021/10/26 04:39:44;;;;;;;12.53;6.43;;;6.80;99.90;;;;;;5072149;28;20446;-51
2021/10/26 04:42:12;;;;;;;15.67;7.50;;;6.90;99.90;;;;;;5060952;28;20509;-52
2021/10/26 04:44:40;;;;;;;19.57;8.90;;;6.90;99.90;;;;;;5050965;28;20478;-52
2021/10/26 04:47:07;;;;;;;13.93;7.40;;;6.90;99.90;;;;;;5054367;28;20497;-52
2021/10/26 04:49:34;;;;;;;17.03;6.07;;;6.80;99.90;;;;;;5056564;28;20516;-51
2021/10/26 04:52:02;;;;;;;9.60;5.20;;;6.70;99.90;;;;;;5055926;28;21181;-51
2021/10/26 04:54:29;;;;;;;9.10;5.00;;;6.90;99.90;;;;;;5071798;28;20530;-51
2021/10/26 04:56:57;;;;;;;6.87;4.60;;;7.00;99.90;;;;;;5061770;28;20510;-51
2021/10/26 04:59:24;;;;;;;7.80;4.90;;;6.90;99.90;;;;;;5051436;28;20957;-51
2021/10/26 05:01:52;;;;;;;8.07;4.80;;;6.90;99.90;;;;;;5051039;28;20502;-51
2021/10/26 05:04:19;;;;;;;5.50;4.10;;;6.90;99.90;;;;;;5051869;28;20523;-51
2021/10/26 05:06:46;;;;;;;5.40;4.13;;;6.90;99.90;;;;;;5057763;28;20518;-50
2021/10/26 05:09:13;;;;;;;6.07;3.67;;;6.80;99.90;;;;;;5040807;28;20938;-51
2021/10/26 05:11:40;;;;;;;7.47;4.67;;;6.70;99.90;;;;;;5051402;28;20450;-51
2021/10/26 05:14:07;;;;;;;7.83;5.00;;;6.70;99.90;;;;;;5051704;28;20464;-51
2021/10/26 05:16:34;;;;;;;6.67;4.40;;;6.80;99.90;;;;;;5051377;28;20487;-51
2021/10/26 05:19:04;;;;;;;6.03;4.60;;;6.90;99.90;;;;;;5051691;28;20526;-51
2021/10/26 05:21:32;;;;;;;6.87;4.33;;;7.00;99.90;;;;;;5051356;28;20448;-51
2021/10/26 05:23:59;;;;;;;6.33;4.17;;;6.90;99.90;;;;;;5051402;28;20519;-51
2021/10/26 05:26:27;;;;;;;7.23;4.13;;;6.80;99.90;;;;;;5051456;28;20452;-51
2021/10/26 05:28:54;;;;;;;5.27;4.30;;;6.80;99.90;;;;;;5051466;28;20499;-51
2021/10/26 05:31:21;;;;;;;7.10;4.67;;;6.70;99.90;;;;;;5051324;28;20452;-51
2021/10/26 05:33:49;;;;;;;7.40;4.63;;;6.90;99.90;;;;;;5051161;28;20500;-51
2021/10/26 05:36:17;;;;;;;7.70;4.40;;;7.20;99.90;;;;;;5051564;28;20491;-51
2021/10/26 05:38:44;;;;;;;6.70;4.20;;;7.10;99.90;;;;;;5050629;28;20480;-51
2021/10/26 05:41:13;;;;;;;8.20;4.73;;;7.20;99.90;;;;;;5051107;28;20566;-51
2021/10/26 05:43:40;;;;;;;7.27;4.20;;;7.10;99.90;;;;;;5052454;28;20566;-51
2021/10/26 05:46:08;;;;;;;10.37;5.07;;;7.20;99.90;;;;;;5054616;28;20509;-52
2021/10/26 05:48:35;;;;;;;8.63;4.60;;;7.20;99.90;;;;;;5054768;28;20892;-51
2021/10/26 05:51:04;;;;;;;7.33;4.10;;;7.30;99.90;;;;;;5054191;28;20445;-53
2021/10/26 05:53:33;;;;;;;7.13;4.30;;;7.20;99.90;;;;;;5059164;28;20471;-52
2021/10/26 05:56:00;;;;;;;7.40;5.10;;;7.10;99.90;;;;;;5055445;28;20480;-52
2021/10/26 05:58:28;;;;;;;7.40;4.70;;;7.10;99.90;;;;;;5067447;28;20443;-52
2021/10/26 06:00:55;;;;;;;7.40;4.20;;;6.90;99.90;;;;;;5060203;28;20514;-52
2021/10/26 06:03:21;;;;;;;7.90;3.80;;;6.90;99.90;;;;;;5054929;28;20467;-52
2021/10/26 06:05:49;;;;;;;6.67;4.60;;;6.90;99.90;;;;;;5054288;28;20901;-52
2021/10/26 06:08:16;;;;;;;9.87;4.20;;;6.90;99.90;;;;;;5064492;28;21020;-53
2021/10/26 06:10:49;;;;;;;6.57;3.83;;;6.90;99.90;;;;;;5054928;28;20955;-52
2021/10/26 06:13:22;;;;;;;5.50;3.70;;;6.90;99.90;;;;;;5054287;28;21015;-52
2021/10/26 06:15:50;;;;;;;6.60;4.13;;;6.90;99.90;;;;;;5055262;28;21257;-51
2021/10/26 06:18:17;;;;;;;4.80;3.70;;;7.10;99.90;;;;;;5053624;28;20455;-51
2021/10/26 06:20:44;;;;;;;5.07;3.63;;;7.10;99.90;;;;;;5053582;28;20447;-52
2021/10/26 06:23:11;;;;;;;5.73;4.10;;;7.10;99.90;;;;;;5054614;28;20512;-52
2021/10/26 06:25:38;;;;;;;7.67;4.03;;;7.10;99.90;;;;;;5056811;28;20509;-51
2021/10/26 06:28:07;;;;;;;5.43;3.70;;;7.10;99.90;;;;;;5057524;28;20497;-51
2021/10/26 06:30:34;;;;;;;5.03;3.50;;;7.10;99.90;;;;;;5053063;28;20512;-52
2021/10/26 06:33:01;;;;;;;16.00;5.10;;;7.10;99.90;;;;;;5054373;28;20501;-51
2021/10/26 06:35:28;;;;;;;8.40;4.43;;;7.10;99.90;;;;;;5054118;28;20921;-51
2021/10/26 06:37:55;;;;;;;9.60;5.27;;;7.20;99.90;;;;;;5053118;28;21017;-51
2021/10/26 06:40:22;;;;;;;7.07;4.40;;;7.30;99.90;;;;;;5053558;28;20815;-51
2021/10/26 06:42:49;;;;;;;8.80;4.10;;;7.30;99.90;;;;;;5054270;28;20444;-51
2021/10/26 06:45:18;;;;;;;5.33;3.80;;;7.30;99.90;;;;;;5053982;28;20470;-51
2021/10/26 06:47:45;;;;;;;7.37;4.37;;;7.30;99.90;;;;;;5053907;28;20456;-52
2021/10/26 06:50:12;;;;;;;4.37;3.73;;;7.40;99.90;;;;;;5053866;28;20458;-51
2021/10/26 06:52:39;;;;;;;9.70;4.23;;;7.30;99.90;;;;;;5053903;28;20452;-51
2021/10/26 06:55:07;;;;;;;10.20;4.57;;;7.30;99.90;;;;;;5053428;28;20476;-51
2021/10/26 06:57:34;;;;;;;11.10;5.30;;;7.20;99.90;;;;;;5053943;28;20973;-51
2021/10/26 07:00:03;;;;;;;8.50;4.90;;;7.20;99.90;;;;;;5053715;28;20456;-51
2021/10/26 07:02:31;;;;;;;7.87;4.80;;;7.20;99.90;;;;;;5053377;28;20455;-52
2021/10/26 07:05:01;;;;;;;8.47;4.80;;;7.20;99.90;;;;;;5053694;28;20523;-52
2021/10/26 07:07:28;;;;;;;9.40;5.10;;;7.30;99.90;;;;;;5051191;28;20444;-51
2021/10/26 07:09:55;;;;;;;10.23;5.20;;;7.30;99.90;;;;;;5053579;28;20605;-51
2021/10/26 07:12:22;;;;;;;7.80;4.37;;;7.30;99.90;;;;;;5053461;28;20502;-52
2021/10/26 07:14:49;;;;;;;6.63;3.70;;;7.30;99.90;;;;;;4998722;28;20558;-52
2021/10/26 07:17:16;;;;;;;9.43;4.63;;;7.30;99.90;;;;;;4993832;28;21128;-51
2021/10/26 07:19:45;;;;;;;7.57;4.20;;;7.30;99.90;;;;;;4993732;28;20482;-52
2021/10/26 07:22:12;;;;;;;7.13;4.20;;;7.30;99.90;;;;;;4992748;28;20455;-52
2021/10/26 07:24:39;;;;;;;7.90;3.77;;;7.30;99.90;;;;;;5038999;22;20496;-52
2021/10/26 07:27:06;;;;;;;6.03;3.67;;;7.30;99.90;;;;;;5040982;28;20455;-51
2021/10/26 07:29:33;;;;;;;7.20;3.80;;;7.30;99.90;;;;;;5045078;28;20447;-51
2021/10/26 07:32:00;;;;;;;4.97;3.00;;;7.30;99.90;;;;;;5032728;28;20458;-53
2021/10/26 07:34:28;;;;;;;6.17;3.20;;;7.50;99.90;;;;;;5045377;28;20452;-51
2021/10/26 07:36:56;;;;;;;5.80;4.03;;;7.40;99.90;;;;;;5032975;28;20523;-52
2021/10/26 07:39:35;;;;;;;6.40;3.53;;;7.30;99.90;;;;;;5032830;28;20446;-50
2021/10/26 07:42:02;;;;;;;8.10;3.70;;;7.30;99.90;;;;;;5033178;28;20582;-51
2021/10/26 07:44:31;;;;;;;5.50;3.13;;;7.30;99.90;;;;;;5033300;28;20479;-50
2021/10/26 07:47:00;;;;;;;6.70;3.67;;;7.30;99.90;;;;;;5033156;28;20453;-51
2021/10/26 07:49:28;;;;;;;7.13;3.33;;;7.40;99.90;;;;;;5033062;28;20513;-51
2021/10/26 07:51:56;;;;;;;3.80;2.80;;;7.50;99.90;;;;;;5032754;28;20452;-50
2021/10/26 07:54:23;;;;;;;3.93;3.00;;;7.60;99.90;;;;;;5032557;28;20957;-52
2021/10/26 07:56:51;;;;;;;4.33;2.90;;;7.70;99.90;;;;;;5031639;28;20485;-50
2021/10/26 07:59:18;;;;;;;6.33;3.10;;;7.80;99.90;;;;;;5032793;28;20440;-51
2021/10/26 08:01:46;;;;;;;4.20;2.73;;;7.80;99.90;;;;;;5032386;28;20452;-52
2021/10/26 08:04:13;;;;;;;4.83;3.30;;;8.00;99.90;;;;;;5032433;28;20863;-52
2021/10/26 08:06:42;;;;;;;7.50;3.10;;;8.10;99.90;;;;;;5032442;28;20448;-52
2021/10/26 08:09:10;;;;;;;5.70;2.90;;;8.20;99.90;;;;;;5043292;28;20448;-51
2021/10/26 08:11:37;;;;;;;3.30;2.70;;;8.20;99.90;;;;;;5032433;28;20452;-51
2021/10/26 08:14:06;;;;;;;4.47;3.03;;;8.20;99.90;;;;;;5032060;28;20464;-52
2021/10/26 08:16:36;;;;;;;4.40;3.10;;;8.20;99.90;;;;;;5017556;28;20488;-52
2021/10/26 08:19:04;;;;;;;4.27;3.10;;;8.30;99.90;;;;;;5032462;28;20506;-51
2021/10/26 08:21:31;;;;;;;4.30;2.87;;;8.50;99.90;;;;;;5032043;28;20448;-52
2021/10/26 08:24:00;;;;;;;5.40;3.17;;;8.40;99.90;;;;;;5030910;28;20575;-52
2021/10/26 08:26:33;;;;;;;4.70;3.37;;;8.60;99.90;;;;;;5030536;28;20460;-51
2021/10/26 08:29:06;;;;;;;5.83;3.20;;;8.70;99.90;;;;;;5030230;28;20464;-49
2021/10/26 08:31:41;;;;;;;4.60;3.10;;;8.50;99.90;;;;;;5031996;28;20452;-50
2021/10/26 08:34:12;;;;;;;4.20;2.97;;;8.40;99.90;;;;;;5016746;28;20474;-51
2021/10/26 08:36:39;;;;;;;7.80;4.33;;;8.30;99.90;;;;;;5032135;28;21018;-51
2021/10/26 08:39:08;;;;;;;7.03;4.30;;;8.50;99.90;;;;;;5031871;28;20441;-50
2021/10/26 08:41:38;;;;;;;5.53;4.00;;;8.50;99.90;;;;;;5031456;28;20964;-50
2021/10/26 08:44:05;;;;;;;5.20;3.40;;;8.40;99.90;;;;;;5031839;28;20474;-49
2021/10/26 08:46:35;;;;;;;6.20;3.70;;;8.50;99.90;;;;;;5040169;28;20452;-51
2021/10/26 08:49:03;;;;;;;7.73;4.33;;;8.50;99.90;;;;;;5039403;28;20531;-50
2021/10/26 08:51:30;;;;;;;11.20;4.77;;;8.60;99.90;;;;;;5038751;28;20458;-51
2021/10/26 08:53:57;;;;;;;6.23;4.10;;;8.70;99.90;;;;;;5038299;28;20490;-51
2021/10/26 08:56:25;;;;;;;7.13;4.40;;;8.70;99.90;;;;;;5031437;28;20558;-50
2021/10/26 08:58:56;;;;;;;6.47;4.00;;;8.80;99.90;;;;;;5030583;28;20476;-50
2021/10/26 09:01:23;;;;;;;7.10;3.80;;;8.90;99.90;;;;;;5030802;28;20444;-51
2021/10/26 09:03:52;;;;;;;7.80;4.10;;;9.00;99.90;;;;;;5031544;28;20495;-51
2021/10/26 09:06:27;;;;;;;4.97;3.47;;;9.10;99.90;;;;;;5031636;28;20456;-51
2021/10/26 09:08:56;;;;;;;4.50;3.73;;;9.20;99.90;;;;;;5024447;28;20517;-51
2021/10/26 09:11:26;;;;;;;5.50;4.00;;;9.40;99.90;;;;;;5030418;28;20479;-50
2021/10/26 09:16:45;;;;;;;5.60;4.00;;;9.70;99.90;;;;;;5038798;28;20631;-50
2021/10/26 09:19:14;;;;;;;5.40;3.60;;;9.90;99.90;;;;;;5033370;28;20980;-51
2021/10/26 09:21:43;;;;;;;8.50;3.97;;;10.10;99.90;;;;;;5033543;28;20448;-50
2021/10/26 09:24:12;;;;;;;6.97;4.23;;;10.20;99.90;;;;;;5033073;28;20487;-51
2021/10/26 09:26:51;;;;;;;6.43;4.10;;;10.50;99.90;;;;;;5030984;28;20444;-51
2021/10/26 09:29:26;;;;;;;10.17;4.63;;;10.60;99.90;;;;;;5031529;28;20506;-51
2021/10/26 09:32:02;;;;;;;5.27;3.80;;;10.70;99.90;;;;;;5030395;28;20440;-51
2021/10/26 09:34:38;;;;;;;8.90;4.03;;;10.50;99.90;;;;;;5031163;28;20564;-51
2021/10/26 09:37:05;;;;;;;8.03;4.40;;;10.50;99.90;;;;;;5031053;28;20484;-50
2021/10/26 09:39:33;;;;;;;4.03;3.40;;;10.60;99.90;;;;;;5032583;28;20453;-51
2021/10/26 09:42:11;;;;;;;12.10;4.83;;;10.70;99.90;;;;;;5031997;28;20958;-50
2021/10/26 09:44:43;;;;;;;8.67;4.50;;;10.80;99.90;;;;;;5024486;28;20491;-52
2021/10/26 09:47:15;;;;;;;7.33;4.43;;;10.90;99.90;;;;;;5025071;28;20465;-51
2021/10/26 09:49:44;;;;;;;5.70;4.33;;;10.70;99.90;;;;;;5021751;28;20479;-50
2021/10/26 09:52:14;;;;;;;6.40;4.10;;;11.20;99.90;;;;;;5018372;28;20464;-50
2021/10/26 09:54:42;;;;;;;3.93;3.53;;;11.20;99.90;;;;;;5022446;28;20530;-50
2021/10/26 09:57:11;;;;;;;6.13;3.70;;;11.30;99.90;;;;;;5017498;28;21005;-51
2021/10/26 09:59:47;;;;;;;4.23;3.70;;;11.30;99.90;;;;;;5022522;28;20886;-53
2021/10/26 10:02:17;;;;;;;5.47;4.03;;;11.50;99.90;;;;;;5020012;28;22205;-52
2021/10/26 10:04:44;;;;;;;7.03;3.60;;;11.40;99.90;;;;;;5029561;28;20526;-53
2021/10/26 10:07:11;;;;;;;6.43;4.00;;;11.50;99.90;;;;;;5016895;28;20833;-53
2021/10/26 10:09:38;;;;;;;5.70;4.00;;;11.60;99.90;;;;;;5026358;28;20448;-53
2021/10/26 10:12:06;;;;;;;4.70;3.30;;;11.60;99.90;;;;;;5029809;28;20814;-51
2021/10/26 10:14:41;;;;;;;4.10;3.10;;;11.60;99.90;;;;;;5021930;28;20633;-51
2021/10/26 10:17:09;;;;;;;5.57;3.60;;;11.60;99.90;;;;;;5030722;28;20511;-53
2021/10/26 10:19:37;;;;;;;4.80;3.47;;;11.60;99.90;;;;;;5022249;28;20448;-52
2021/10/26 10:22:07;;;;;;;13.20;4.03;;;11.60;99.90;;;;;;5029291;28;20464;-52
2021/10/26 10:24:39;;;;;;;3.50;3.20;;;11.70;99.90;;;;;;5021896;28;20538;-52
2021/10/26 10:27:07;;;;;;;6.93;3.87;;;11.60;99.90;;;;;;5021585;28;20456;-54
2021/10/26 10:29:35;;;;;;;5.73;3.70;;;11.50;99.90;;;;;;5029611;28;21046;-52
2021/10/26 10:32:04;;;;;;;7.13;3.77;;;11.50;99.90;;;;;;5032185;28;20518;-51
2021/10/26 10:34:31;;;;;;;4.97;3.93;;;11.50;99.90;;;;;;5025455;28;20910;-52
2021/10/26 10:37:00;;;;;;;4.00;2.93;;;11.50;99.90;;;;;;5033605;28;20561;-53
2021/10/26 10:39:33;;;;;;;4.70;3.67;;;11.50;99.90;;;;;;5032641;28;20464;-52
2021/10/26 10:42:18;;;;;;;6.03;4.43;;;11.50;99.90;;;;;;5032275;28;20464;-52
2021/10/26 10:44:46;;;;;;;7.80;4.07;;;11.70;99.90;;;;;;5027802;28;20495;-52
2021/10/26 10:47:38;;;;;;;6.80;4.40;;;11.60;99.90;;;;;;5033036;28;20792;-52
2021/10/26 10:50:23;;;;;;;7.17;4.50;;;11.70;99.90;;;;;;5033286;28;20241;-53
2021/10/26 10:53:04;;;;;;;10.73;4.60;;;11.60;99.90;;;;;;5033073;28;20589;-52
2021/10/26 10:55:32;;;;;;;6.23;4.03;;;11.40;99.90;;;;;;5032804;28;20546;-52
2021/10/26 10:58:39;;;;;;;6.73;3.87;;;11.80;99.90;;;;;;5024929;28;20500;-52
2021/10/26 11:01:34;;;;;;;4.30;3.90;;;12.30;99.90;;;;;;5033788;28;20471;-52
2021/10/26 11:04:35;;;;;;;6.30;4.50;;;12.80;99.90;;;;;;5031092;28;20491;-53
2021/10/26 11:07:03;;;;;;;6.63;3.77;;;13.00;99.90;;;;;;5030098;28;20865;-52
2021/10/26 11:09:40;;;;;;;5.90;3.60;;;13.10;99.90;;;;;;5030487;28;20858;-53
2021/10/26 11:12:20;;;;;;;4.30;2.90;;;13.20;99.90;;;;;;5032276;28;20466;-53
2021/10/26 11:14:55;;;;;;;4.93;2.93;;;13.20;99.90;;;;;;5033648;28;20548;-53
2021/10/26 11:17:49;;;;;;;3.73;3.17;;;13.10;99.90;;;;;;5031632;28;20484;-53
2021/10/26 11:20:54;;;;;;;3.20;2.90;;;13.10;99.90;;;;;;5032700;28;20497;-54
2021/10/26 11:23:41;;;;;;;6.73;3.00;;;13.00;99.90;;;;;;5029133;28;20522;-53
2021/10/26 11:26:15;;;;;;;6.00;3.20;;;12.90;99.90;;;;;;5031538;28;20595;-52
2021/10/26 11:28:54;;;;;;;5.43;3.30;;;13.00;99.90;;;;;;5029701;28;20521;-54
2021/10/26 11:31:26;;;;;;;4.00;3.10;;;13.10;99.90;;;;;;5022059;28;21073;-53
2021/10/26 11:34:21;;;;;;;4.40;2.90;;;13.20;99.90;;;;;;5032640;28;20538;-52
2021/10/26 11:37:02;;;;;;;4.93;3.00;;;13.00;99.90;;;;;;5022375;28;20477;-54
2021/10/26 11:39:29;;;;;;;5.30;3.37;;;13.10;99.90;;;;;;5030116;28;20468;-51
2021/10/26 11:41:58;;;;;;;4.27;2.80;;;13.20;99.90;;;;;;5023475;28;20448;-52
2021/10/26 11:44:25;;;;;;;4.37;3.30;;;13.20;99.90;;;;;;5028946;28;21468;-52
2021/10/26 11:46:53;;;;;;;4.00;3.33;;;13.30;99.90;;;;;;5030079;28;20460;-52
2021/10/26 11:49:22;;;;;;;6.57;2.83;;;13.30;99.90;;;;;;5031266;28;20456;-51
2021/10/26 11:51:54;;;;;;;3.50;2.43;;;13.40;99.90;;;;;;5031017;28;20465;-52
2021/10/26 11:54:24;;;;;;;3.30;2.90;;;13.50;99.90;;;;;;5030678;28;20503;-52
2021/10/26 11:56:52;;;;;;;4.50;3.50;;;13.50;99.90;;;;;;5032113;28;20587;-52
2021/10/26 11:59:32;;;;;;;4.20;3.53;;;13.30;99.90;;;;;;5032862;28;20499;-52
2021/10/26 12:02:10;;;;;;;5.93;4.00;;;13.20;99.90;;;;;;5031956;28;20510;-52
2021/10/26 12:04:38;;;;;;;6.90;3.50;;;13.00;99.90;;;;;;5028348;28;20514;-52
2021/10/26 12:07:08;;;;;;;6.50;3.67;;;13.00;99.90;;;;;;5028517;28;20511;-52
2021/10/26 12:09:38;;;;;;;9.83;3.20;;;12.90;99.90;;;;;;5032595;28;20587;-52
2021/10/26 12:12:07;;;;;;;4.43;3.17;;;12.90;99.90;;;;;;5032928;28;20440;-51
2021/10/26 12:14:36;;;;;;;4.00;3.30;;;12.80;99.90;;;;;;5031460;28;20530;-52
2021/10/26 12:17:10;;;;;;;4.67;3.57;;;12.80;99.90;;;;;;5031902;28;20476;-52
2021/10/26 12:19:39;;;;;;;4.87;3.50;;;12.80;99.90;;;;;;5024231;28;20449;-52
2021/10/26 12:22:16;;;;;;;4.97;3.90;;;12.70;99.90;;;;;;5035984;28;20513;-52
2021/10/26 12:24:48;;;;;;;7.10;4.17;;;12.70;99.90;;;;;;5028278;28;20545;-52
2021/10/26 12:27:23;;;;;;;4.37;3.70;;;12.80;99.90;;;;;;5023186;28;20464;-52
2021/10/26 12:29:50;;;;;;;4.43;3.40;;;12.90;99.90;;;;;;5022109;28;20534;-52
2021/10/26 12:32:18;;;;;;;5.53;3.63;;;12.90;99.90;;;;;;5030408;28;20555;-52
2021/10/26 12:34:47;;;;;;;6.60;4.30;;;12.80;99.90;;;;;;5021439;28;20560;-53
2021/10/26 12:37:23;;;;;;;5.30;3.50;;;12.90;99.90;;;;;;5023244;28;20481;-51
2021/10/26 12:39:53;;;;;;;4.30;3.20;;;12.90;99.90;;;;;;5023341;28;20456;-51
2021/10/26 12:42:32;;;;;;;4.40;3.63;;;13.00;99.90;;;;;;5023595;28;20515;-54
2021/10/26 12:45:00;;;;;;;7.27;5.00;;;12.90;99.90;;;;;;5023942;28;20488;-52
2021/10/26 12:47:29;;;;;;;6.23;3.77;;;12.90;99.90;;;;;;5025028;28;20464;-54
2021/10/26 12:49:57;;;;;;;6.03;3.80;;;12.90;99.90;;;;;;5020909;28;20542;-52
2021/10/26 12:52:25;;;;;;;4.90;4.17;;;12.80;99.90;;;;;;5023363;28;20488;-51
2021/10/26 12:54:53;;;;;;;8.57;4.27;;;12.80;99.90;;;;;;5023065;28;20572;-55
2021/10/26 12:57:36;;;;;;;6.93;4.27;;;12.90;99.90;;;;;;5022007;28;20487;-53
2021/10/26 13:00:23;;;;;;;8.67;4.07;;;12.90;99.90;;;;;;5023161;28;20460;-52
2021/10/26 13:02:50;;;;;;;5.30;4.13;;;12.90;99.90;;;;;;5023953;28;20510;-52
2021/10/26 13:05:17;;;;;;;6.47;4.30;;;13.00;99.90;;;;;;5022726;28;20534;-52
2021/10/26 13:07:46;;;;;;;7.80;4.10;;;13.10;99.90;;;;;;5026230;28;20495;-53